El Paso, TX (88555)

7:40 PM MDT on July 05, 2015 (GMT -0600)
Shock | | Change Station
CLOSE
Current Station
Personal Weather Station
Location: El Paso, TX
Elevation: 3924 ft
Nearby Weather Stations

Elev 3924 ft 31.76 °N, 106.33 °W | Updated 12 minutes ago

Partly Cloudy
Partly Cloudy
88.7 °F
Feels Like 88 °F
N
8.9
Wind Variable Wind from West

Today
High -- | Low -- °F
--% Chance of Precip.
Yesterday
High -- | Low -- °F
Precip. -- in
6:05 AM 8:14 PM
Waning Gibbous, 80% visible
Pressure 29.73 in
Visibility 10.0 miles
Clouds Scattered Clouds 8000 ft
Scattered Clouds 14000 ft
Scattered Clouds 25000 ft
Heat Index 88 °F
Dew Point 59 °F
Humidity 37%
Rainfall 0.00 in
Snow Depth Not available.
UV 1 out of 12
Pollen 3.50 out of 12
Air Quality Not available.
Flu Activity Not available.
METAR KELP 060051Z 26016G21KT 10SM SCT080 SCT140 SCT250 32/14 A2995 RMK AO2 SLP065 CB DSNT NE-SE T03220139 $

More Conditions Fewer Conditions

Pressure 29.73 in
Visibility 10.0 miles
Clouds Scattered Clouds 8000 ft
Scattered Clouds 14000 ft
Scattered Clouds 25000 ft
Heat Index 88 °F
Dew Point 59 °F
Humidity 37%
Rainfall 0.00 in
Snow Depth Not available.
UV 1 out of 12
Pollen 3.50 out of 12
Air Quality Not available.
Flu Activity Not available.
METAR KELP 060051Z 26016G21KT 10SM SCT080 SCT140 SCT250 32/14 A2995 RMK AO2 SLP065 CB DSNT NE-SE T03220139 $

More Conditions Fewer Conditions

10-Day Weather Forecast

×

Almanac

Astronomy

Jul. 05, 2015 Rise Set
Actual Time
Civil Twilight
Nautical Twilight
Astronomical Twilight
Moon
Length of Visible Light
Length of Day
Tomorrow will be .
, % of the Moon is Illuminated

Today's Extremes

State Highs State Lows

Community

WunderPhotos

Upload Photos

1,835,443 photos uploaded!

WunderBlogs® & News

Nearby

Air Quality

  Air Quality AQ Index Pollutant
Not available.

Snow Depth

Station Depth Elevation

Earthquake Activity

City Distance Mag. Time & Date
Minimum magnitude displayed is 2.5.

Coastal Water Temperatures

Place Temperature

Stations

Nearby Weather Stations

Station Location Temp. Windchill Dew Point Humidity Wind Precip. Elev Updated Type